Time;durP1;ratioP1;P1;durP2;ratioP2;P2;SDS_P1;SDS_P2;PMS_P1;PMS_P2;Temp;Humidity;BMP_temperature;BMP_pressure;BME280_temperature;BME280_humidity;BME280_pressure;Samples;Min_cycle;Max_cycle;Signal;HPM_P1;HPM_P2
2022/04/15 00:01:27;;;;;;;73.18;41.72;;;;;;;;;;4455969;32;19933;-78
2022/04/15 00:03:52;;;;;;;;;;;;;;;;;;4453039;32;20117;-78
2022/04/15 00:06:18;;;;;;;75.47;44.55;;;;;;;;;;4453569;32;19933;-78
2022/04/15 00:08:43;;;;;;;;;;;;;;;;;;4439985;32;20502;-78
2022/04/15 00:11:09;;;;;;;69.78;43.45;;;;;;;;;;4453254;32;19967;-77
2022/04/15 00:13:35;;;;;;;;;;;;;;;;;;4451781;32;20555;-78
2022/04/15 00:16:00;;;;;;;80.03;45.97;;;;;;;;;;4453244;32;19953;-77
2022/04/15 00:18:26;;;;;;;;;;;;;;;;;;4453238;32;20517;-78
2022/04/15 00:20:52;;;;;;;70.53;43.00;;;;;;;;;;4451636;32;19970;-78
2022/04/15 00:23:18;;;;;;;;;;;;;;;;;;4451904;32;20029;-78
2022/04/15 00:25:43;;;;;;;73.97;43.87;;;;;;;;;;4437607;32;19929;-78
2022/04/15 00:28:08;;;;;;;;;;;;;;;;;;4454159;32;20025;-77
2022/04/15 00:30:34;;;;;;;64.78;42.60;;;;;;;;;;4439510;32;19947;-80
2022/04/15 00:32:59;;;;;;;;;;;;;;;;;;4453156;32;20343;-77
2022/04/15 00:35:24;;;;;;;66.50;42.75;;;;;;;;;;4437082;32;19936;-78
2022/04/15 00:37:49;;;;;;;;;;;;;;;;;;4437536;32;20026;-78
2022/04/15 00:40:14;;;;;;;79.97;46.30;;;;;;;;;;4451290;32;20369;-77
2022/04/15 00:42:39;;;;;;;;;;;;;;;;;;4437208;32;20084;-77
2022/04/15 00:45:05;;;;;;;70.40;44.50;;;;;;;;;;4436627;32;20353;-77
2022/04/15 00:47:30;;;;;;;;;;;;;;;;;;4451595;32;20152;-77
2022/04/15 00:49:56;;;;;;;73.28;43.63;;;;;;;;;;4436943;32;19943;-77
2022/04/15 00:52:21;;;;;;;;;;;;;;;;;;4452703;32;20059;-77
2022/04/15 00:54:48;;;;;;;82.32;46.35;;;;;;;;;;4451584;32;19980;-79
2022/04/15 00:57:16;;;;;;;77.93;47.83;;;;;;;;;;4451164;32;20416;-75
2022/04/15 00:59:42;;;;;;;84.80;47.67;;;;;;;;;;4452559;32;20077;-77
2022/04/15 01:02:07;;;;;;;;;;;;;;;;;;4451700;32;20025;-79
2022/04/15 01:04:32;;;;;;;78.65;47.62;;;;;;;;;;4451265;32;19998;-78
2022/04/15 01:06:57;;;;;;;;;;;;;;;;;;4437246;32;20083;-76
2022/04/15 01:09:23;;;;;;;93.87;52.05;;;;;;;;;;4452508;32;20284;-78
2022/04/15 01:11:48;;;;;;;;;;;;;;;;;;4437392;32;20048;-79
2022/04/15 01:14:14;;;;;;;98.75;54.35;;;;;;;;;;4450683;32;19966;-77
2022/04/15 01:16:39;;;;;;;;;;;;;;;;;;4453017;32;20030;-78
2022/04/15 01:19:04;;;;;;;130.60;59.63;;;;;;;;;;4436967;32;20302;-79
2022/04/15 01:21:29;;;;;;;;;;;;;;;;;;4437089;32;20025;-79
2022/04/15 01:23:54;;;;;;;126.50;59.40;;;;;;;;;;4451271;32;19933;-78
2022/04/15 01:26:19;;;;;;;;;;;;;;;;;;4452277;32;20502;-77
2022/04/15 01:28:45;;;;;;;120.30;52.95;;;;;;;;;;4436660;32;19940;-80
2022/04/15 01:31:10;;;;;;;;;;;;;;;;;;4451055;32;20548;-79
2022/04/15 01:33:35;;;;;;;144.70;58.70;;;;;;;;;;4451002;32;19933;-76
2022/04/15 01:36:00;;;;;;;;;;;;;;;;;;4451331;32;20351;-78
2022/04/15 01:38:25;;;;;;;192.05;52.53;;;;;;;;;;4450233;32;20265;-78
2022/04/15 01:40:52;;;;;;;;;;;;;;;;;;4452672;32;20491;-78
2022/04/15 01:43:17;;;;;;;176.23;55.85;;;;;;;;;;4449912;32;19940;-78
2022/04/15 01:45:42;;;;;;;;;;;;;;;;;;4451836;32;20150;-77
2022/04/15 01:48:07;;;;;;;99.05;50.92;;;;;;;;;;4436333;32;20370;-78
2022/04/15 01:50:32;;;;;;;;;;;;;;;;;;4452104;32;20113;-77
2022/04/15 01:52:58;;;;;;;112.15;53.05;;;;;;;;;;4453520;32;19973;-77
2022/04/15 01:55:23;;;;;;;;;;;;;;;;;;4455135;32;20125;-77
2022/04/15 01:57:49;;;;;;;89.47;50.70;;;;;;;;;;4441056;32;20401;-77
2022/04/15 02:00:14;;;;;;;;;;;;;;;;;;4454165;32;20108;-78
2022/04/15 02:02:39;;;;;;;89.30;50.75;;;;;;;;;;4439153;32;19941;-79
2022/04/15 02:05:04;;;;;;;;;;;;;;;;;;4453919;32;20234;-78
2022/04/15 02:07:29;;;;;;;90.12;48.42;;;;;;;;;;4454259;32;20290;-80
2022/04/15 02:09:54;;;;;;;;;;;;;;;;;;4454697;32;20021;-77
2022/04/15 02:12:19;;;;;;;71.60;43.72;;;;;;;;;;4439827;32;19936;-81
2022/04/15 02:14:46;;;;;;;;;;;;;;;;;;4455106;32;20109;-80
2022/04/15 02:17:11;;;;;;;53.63;35.45;;;;;;;;;;4453407;32;19960;-78
2022/04/15 02:19:36;;;;;;;;;;;;;;;;;;4454396;32;20021;-77
2022/04/15 02:22:02;;;;;;;42.60;30.00;;;;;;;;;;4453095;32;19992;-78
2022/04/15 02:24:27;;;;;;;;;;;;;;;;;;4439471;32;20430;-78
2022/04/15 02:26:52;;;;;;;33.67;23.92;;;;;;;;;;4439082;32;19973;-79
2022/04/15 02:29:17;;;;;;;;;;;;;;;;;;4455349;32;20053;-77
2022/04/15 02:31:42;;;;;;;29.10;21.85;;;;;;;;;;4439086;32;20310;-79
2022/04/15 02:34:08;;;;;;;;;;;;;;;;;;4454015;32;20076;-78
2022/04/15 02:36:33;;;;;;;30.40;22.02;;;;;;;;;;4452828;32;19941;-77
2022/04/15 02:38:58;;;;;;;;;;;;;;;;;;4453116;32;20081;-78
2022/04/15 02:41:23;;;;;;;;;;;;;;;;;;4454765;32;19947;-77
2022/04/15 02:43:48;;;;;;;;;;;;;;;;;;4452539;32;19940;-78
2022/04/15 02:46:13;;;;;;;;;;;;;;;;;;4454885;32;20296;-80
2022/04/15 02:48:38;;;;;;;;;;;;;;;;;;4453984;32;19963;-78
2022/04/15 02:51:03;;;;;;;;;;;;;;;;;;4452499;32;20318;-77
2022/04/15 02:53:28;;;;;;;;;;;;;;;;;;4437113;32;19972;-77
2022/04/15 02:55:54;;;;;;;;;;;;;;;;;;4437957;32;19945;-77
2022/04/15 02:58:19;;;;;;;;;;;;;;;;;;4425137;32;19933;-78
2022/04/15 03:00:44;;;;;;;;;;;;;;;;;;4438972;32;19971;-78
2022/04/15 03:03:09;;;;;;;;;;;;;;;;;;4438976;32;19948;-80
2022/04/15 03:05:34;;;;;;;;;;;;;;;;;;4437904;32;20250;-77
2022/04/15 03:07:59;;;;;;;;;;;;;;;;;;4423205;32;19941;-76
2022/04/15 03:10:24;;;;;;;;;;;;;;;;;;4437942;32;19957;-78
2022/04/15 03:12:49;;;;;;;;;;;;;;;;;;4449735;32;19977;-77
2022/04/15 03:15:14;;;;;;;;;;;;;;;;;;4454084;32;19946;-78
2022/04/15 03:17:39;;;;;;;;;;;;;;;;;;4439851;32;19950;-77
2022/04/15 03:20:05;;;;;;;;;;;;;;;;;;4454750;32;20350;-78
2022/04/15 03:22:30;;;;;;;;;;;;;;;;;;4453820;32;20337;-83
2022/04/15 03:24:55;;;;;;;;;;;;;;;;;;4456365;32;19969;-78
2022/04/15 03:27:20;;;;;;;;;;;;;;;;;;4455635;32;19948;-79
2022/04/15 03:29:45;;;;;;;;;;;;;;;;;;4439591;32;20313;-75
2022/04/15 03:32:10;;;;;;;;;;;;;;;;;;4456517;32;19940;-80
2022/04/15 03:34:36;;;;;;;;;;;;;;;;;;4454239;32;20306;-78
2022/04/15 03:37:01;;;;;;;;;;;;;;;;;;4455328;32;19974;-79
2022/04/15 03:39:26;;;;;;;;;;;;;;;;;;4454715;32;19940;-79
2022/04/15 03:41:51;;;;;;;;;;;;;;;;;;4462154;32;19960;-79
2022/04/15 03:44:17;;;;;;;;;;;;;;;;;;4460317;32;19952;-79
2022/04/15 03:46:42;;;;;;;;;;;;;;;;;;4453670;32;20076;-79
2022/04/15 03:49:07;;;;;;;;;;;;;;;;;;4453422;32;19943;-80
2022/04/15 03:51:32;;;;;;;;;;;;;;;;;;4453223;32;19936;-79
2022/04/15 03:53:57;;;;;;;;;;;;;;;;;;4440269;32;19936;-78
2022/04/15 03:56:22;;;;;;;;;;;;;;;;;;4452428;32;19980;-78
2022/04/15 03:58:47;;;;;;;;;;;;;;;;;;4438240;32;19951;-78
2022/04/15 04:01:13;;;;;;;;;;;;;;;;;;4452296;32;20354;-78
2022/04/15 04:03:38;;;;;;;;;;;;;;;;;;4453642;32;20541;-79
2022/04/15 04:06:03;;;;;;;;;;;;;;;;;;4454540;32;19937;-79
2022/04/15 04:08:28;;;;;;;;;;;;;;;;;;4454046;32;19964;-78
2022/04/15 04:10:53;;;;;;;;;;;;;;;;;;4437603;32;19937;-78
2022/04/15 04:13:19;;;;;;;;;;;;;;;;;;4453719;32;19978;-77
2022/04/15 04:15:44;;;;;;;;;;;;;;;;;;4451857;32;19932;-78
2022/04/15 04:18:10;;;;;;;;;;;;;;;;;;4452658;32;19941;-81
2022/04/15 04:20:35;;;;;;;;;;;;;;;;;;4451961;32;19947;-77
2022/04/15 04:23:01;;;;;;;;;;;;;;;;;;4451415;32;19940;-78
2022/04/15 04:25:26;;;;;;;;;;;;;;;;;;4451744;32;19939;-78
2022/04/15 04:27:51;;;;;;;;;;;;;;;;;;4452059;32;20250;-79
2022/04/15 04:30:16;;;;;;;;;;;;;;;;;;4439040;32;19994;-78
2022/04/15 04:32:41;;;;;;;;;;;;;;;;;;4438020;32;19936;-78
2022/04/15 04:35:06;;;;;;;;;;;;;;;;;;4451619;32;19932;-78
2022/04/15 04:37:31;;;;;;;;;;;;;;;;;;4451362;32;20310;-78
2022/04/15 04:39:56;;;;;;;;;;;;;;;;;;4452212;32;19933;-78
2022/04/15 04:42:21;;;;;;;;;;;;;;;;;;4451122;32;19991;-78
2022/04/15 04:44:46;;;;;;;;;;;;;;;;;;4451763;32;19951;-77
2022/04/15 04:47:11;;;;;;;;;;;;;;;;;;4451416;32;19948;-80
2022/04/15 04:49:36;;;;;;;;;;;;;;;;;;4451117;32;19928;-76
2022/04/15 04:52:02;;;;;;;;;;;;;;;;;;4451754;32;19937;-78
2022/04/15 04:54:27;;;;;;;;;;;;;;;;;;4453078;32;20346;-78
2022/04/15 04:56:52;;;;;;;;;;;;;;;;;;4451272;32;19933;-76
2022/04/15 04:59:17;;;;;;;;;;;;;;;;;;4437359;32;19988;-78
2022/04/15 05:01:42;;;;;;;;;;;;;;;;;;4453044;32;19933;-76
2022/04/15 05:04:07;;;;;;;;;;;;;;;;;;4452064;32;19959;-78
2022/04/15 05:06:32;;;;;;;;;;;;;;;;;;4453567;32;19941;-77
2022/04/15 05:08:57;;;;;;;;;;;;;;;;;;4451563;32;19936;-77
2022/04/15 05:11:22;;;;;;;;;;;;;;;;;;4450925;32;20268;-78
2022/04/15 05:13:50;;;;;;;;;;;;;;;;;;4451302;32;20218;-77
2022/04/15 05:16:15;;;;;;;;;;;;;;;;;;4451269;32;19988;-77
2022/04/15 05:18:40;;;;;;;;;;;;;;;;;;4451695;32;19952;-77
2022/04/15 05:21:05;;;;;;;;;;;;;;;;;;4452849;32;19947;-76
2022/04/15 05:23:30;;;;;;;;;;;;;;;;;;4451493;32;19982;-77
2022/04/15 05:25:55;;;;;;;;;;;;;;;;;;4437023;32;20313;-78
2022/04/15 05:28:20;;;;;;;;;;;;;;;;;;4456367;32;20325;-77
2022/04/15 05:30:45;;;;;;;;;;;;;;;;;;4446966;32;19944;-76
2022/04/15 05:33:10;;;;;;;;;;;;;;;;;;4439788;32;19937;-76
2022/04/15 05:35:35;;;;;;;;;;;;;;;;;;4424866;32;19947;-78
2022/04/15 05:38:01;;;;;;;;;;;;;;;;;;4438832;32;19947;-79
2022/04/15 05:40:27;;;;;;;;;;;;;;;;;;4425735;32;19947;-78
2022/04/15 05:42:52;;;;;;;;;;;;;;;;;;4438148;32;20246;-78
2022/04/15 05:45:18;;;;;;;;;;;;;;;;;;4425283;32;20247;-76
2022/04/15 05:47:44;;;;;;;;;;;;;;;;;;4452300;32;19946;-78
2022/04/15 05:50:09;;;;;;;;;;;;;;;;;;4429791;32;19943;-80
2022/04/15 05:52:34;;;;;;;;;;;;;;;;;;4439518;32;19933;-78
2022/04/15 05:54:59;;;;;;;;;;;;;;;;;;4439165;32;19956;-83
2022/04/15 05:57:24;;;;;;;;;;;;;;;;;;4424726;32;19974;-82
2022/04/15 05:59:49;;;;;;;;;;;;;;;;;;4440310;32;19937;-77
2022/04/15 06:02:15;;;;;;;;;;;;;;;;;;4438881;32;20260;-83
2022/04/15 06:04:40;;;;;;;;;;;;;;;;;;4438684;32;19952;-76
2022/04/15 06:07:05;;;;;;;;;;;;;;;;;;4426341;32;19936;-77
2022/04/15 06:09:30;;;;;;;;;;;;;;;;;;4439300;32;19932;-79
2022/04/15 06:11:56;;;;;;;;;;;;;;;;;;4440978;32;20292;-80
2022/04/15 06:14:22;;;;;;;;;;;;;;;;;;4440461;32;19933;-79
2022/04/15 06:16:47;;;;;;;;;;;;;;;;;;4425400;32;19928;-78
2022/04/15 06:19:13;;;;;;;;;;;;;;;;;;4448875;32;20273;-79
2022/04/15 06:21:38;;;;;;;;;;;;;;;;;;4439703;32;19997;-79
2022/04/15 06:24:03;;;;;;;;;;;;;;;;;;4445612;32;19940;-79
2022/04/15 06:26:28;;;;;;;;;;;;;;;;;;4440081;32;19937;-77
2022/04/15 06:28:53;;;;;;;;;;;;;;;;;;4454413;32;19966;-77
2022/04/15 06:31:18;;;;;;;;;;;;;;;;;;4455689;32;19971;-82
2022/04/15 06:33:43;;;;;;;;;;;;;;;;;;4440422;32;19940;-82
2022/04/15 06:36:09;;;;;;;;;;;;;;;;;;4455485;32;19976;-80
2022/04/15 06:38:34;;;;;;;;;;;;;;;;;;4454707;32;19946;-80
2022/04/15 06:40:59;;;;;;;;;;;;;;;;;;4455238;32;20019;-82
2022/04/15 06:43:24;;;;;;;;;;;;;;;;;;4453526;32;20325;-79
2022/04/15 06:45:49;;;;;;;;;;;;;;;;;;4454202;32;20239;-81
2022/04/15 06:48:14;;;;;;;;;;;;;;;;;;4435748;32;19937;-82
2022/04/15 06:50:39;;;;;;;;;;;;;;;;;;4438438;32;19940;-76
2022/04/15 06:53:05;;;;;;;;;;;;;;;;;;4437409;32;20272;-77
2022/04/15 06:55:30;;;;;;;;;;;;;;;;;;4438294;32;19949;-77
2022/04/15 06:57:55;;;;;;;;;;;;;;;;;;4437419;32;19955;-77
2022/04/15 07:00:20;;;;;;;;;;;;;;;;;;4437106;32;19950;-76
2022/04/15 07:02:45;;;;;;;;;;;;;;;;;;4423329;32;19985;-78
2022/04/15 07:05:10;;;;;;;;;;;;;;;;;;4437444;32;19952;-76
2022/04/15 07:07:35;;;;;;;;;;;;;;;;;;4437428;32;20295;-77
2022/04/15 07:10:00;;;;;;;;;;;;;;;;;;4437149;32;19933;-77
2022/04/15 07:12:26;;;;;;;;;;;;;;;;;;4437496;32;19943;-77
2022/04/15 07:14:54;;;;;;;;;;;;;;;;;;4437728;32;19997;-82
2022/04/15 07:17:19;;;;;;;;;;;;;;;;;;4423201;32;19980;-82
2022/04/15 07:19:45;;;;;;;;;;;;;;;;;;4452505;32;19940;-82
2022/04/15 07:22:10;;;;;;;;;;;;;;;;;;4453272;32;19973;-80
2022/04/15 07:24:35;;;;;;;;;;;;;;;;;;4452391;32;19936;-78
2022/04/15 07:27:00;;;;;;;;;;;;;;;;;;4452981;32;19988;-76
2022/04/15 07:29:26;;;;;;;;;;;;;;;;;;4452270;32;19968;-77
2022/04/15 07:31:51;;;;;;;;;;;;;;;;;;4449146;32;19951;-77
2022/04/15 07:34:16;;;;;;;;;;;;;;;;;;4452888;32;20369;-77
2022/04/15 07:39:06;;;;;;;;;;;;;;;;;;4453278;32;19929;-75
2022/04/15 07:41:31;;;;;;;;;;;;;;;;;;4433208;32;19948;-78
2022/04/15 07:43:56;;;;;;;;;;;;;;;;;;4434152;32;19943;-76
2022/04/15 07:46:21;;;;;;;;;;;;;;;;;;4437150;32;19984;-76
2022/04/15 07:48:47;;;;;;;;;;;;;;;;;;4438118;32;19944;-77
2022/04/15 07:51:12;;;;;;;;;;;;;;;;;;4446342;32;19955;-77
2022/04/15 07:53:37;;;;;;;;;;;;;;;;;;4444040;32;20262;-76
2022/04/15 07:56:02;;;;;;;;;;;;;;;;;;4436370;32;19985;-76
2022/04/15 07:58:27;;;;;;;;;;;;;;;;;;4423652;32;19986;-77
2022/04/15 08:00:52;;;;;;;;;;;;;;;;;;4437104;32;19932;-76
2022/04/15 08:03:20;;;;;;;;;;;;;;;;;;4422442;32;19982;-76
2022/04/15 08:05:45;;;;;;;;;;;;;;;;;;4436720;32;19937;-75
2022/04/15 08:08:11;;;;;;;;;;;;;;;;;;4449362;32;19932;-76
2022/04/15 08:10:36;;;;;;;;;;;;;;;;;;4451516;32;19989;-75
2022/04/15 08:13:01;;;;;;;;;;;;;;;;;;4447664;32;19952;-78
2022/04/15 08:15:26;;;;;;;;;;;;;;;;;;4451140;32;19932;-80
2022/04/15 08:17:54;;;;;;;;;;;;;;;;;;4451820;32;20017;-83
2022/04/15 08:20:19;;;;;;;;;;;;;;;;;;4437737;32;19928;-79
2022/04/15 08:22:44;;;;;;;;;;;;;;;;;;4451118;32;20312;-77
2022/04/15 08:25:10;;;;;;;;;;;;;;;;;;4433112;32;19995;-80
2022/04/15 08:27:35;;;;;;;;;;;;;;;;;;4452108;32;19955;-78
2022/04/15 08:30:00;;;;;;;;;;;;;;;;;;4451467;32;19937;-83
2022/04/15 08:32:32;;;;;;;;;;;;;;;;;;4437650;32;19947;-76
2022/04/15 08:34:57;;;;;;;;;;;;;;;;;;4452777;32;19965;-78
2022/04/15 08:37:23;;;;;;;;;;;;;;;;;;4452969;32;19944;-77
2022/04/15 08:39:48;;;;;;;;;;;;;;;;;;4437488;32;19980;-77
2022/04/15 08:42:13;;;;;;;;;;;;;;;;;;4451659;32;19951;-79
2022/04/15 08:44:38;;;;;;;;;;;;;;;;;;4437421;32;19971;-78
2022/04/15 08:47:03;;;;;;;;;;;;;;;;;;4450822;32;20062;-80
2022/04/15 08:49:28;;;;;;;;;;;;;;;;;;4452438;32;19948;-77
2022/04/15 08:51:53;;;;;;;;;;;;;;;;;;4451312;32;19978;-78
2022/04/15 08:54:19;;;;;;;;;;;;;;;;;;4451894;32;19966;-80
2022/04/15 08:56:44;;;;;;;;;;;;;;;;;;4453297;32;19941;-78
2022/04/15 08:59:09;;;;;;;;;;;;;;;;;;4452265;32;20294;-80
2022/04/15 09:01:34;;;;;;;;;;;;;;;;;;4454611;32;19936;-78
2022/04/15 09:04:00;;;;;;;;;;;;;;;;;;4454737;32;20289;-79
2022/04/15 09:06:25;;;;;;;;;;;;;;;;;;4455115;32;19996;-81
2022/04/15 09:08:50;;;;;;;;;;;;;;;;;;4455378;32;19937;-79
2022/04/15 09:11:15;;;;;;;;;;;;;;;;;;4441284;32;19932;-81
2022/04/15 09:13:40;;;;;;;;;;;;;;;;;;4454918;32;19980;-83
2022/04/15 09:16:06;;;;;;;;;;;;;;;;;;4454661;32;20303;-79
2022/04/15 09:18:31;;;;;;;;;;;;;;;;;;4455110;32;19945;-77
2022/04/15 09:20:56;;;;;;;;;;;;;;;;;;4454487;32;19984;-80
2022/04/15 09:23:21;;;;;;;;;;;;;;;;;;4454638;32;20366;-83
2022/04/15 09:25:47;;;;;;;;;;;;;;;;;;4440174;32;19936;-81
2022/04/15 09:28:12;;;;;;;;;;;;;;;;;;4454125;32;19941;-81
2022/04/15 09:30:39;;;;;;;;;;;;;;;;;;4453916;32;20231;-84
2022/04/15 09:33:04;;;;;;;;;;;;;;;;;;4453865;32;19951;-82
2022/04/15 09:35:29;;;;;;;;;;;;;;;;;;4440173;32;20095;-82
2022/04/15 09:37:54;;;;;;;;;;;;;;;;;;4439854;32;19951;-79
2022/04/15 09:40:25;;;;;;;;;;;;;;;;;;4454519;32;20258;-82
2022/04/15 09:42:50;;;;;;;;;;;;;;;;;;4455362;32;19984;-82
2022/04/15 09:45:15;;;;;;;;;;;;;;;;;;4453351;32;19949;-81
2022/04/15 09:47:41;;;;;;;;;;;;;;;;;;4454078;32;19933;-79
2022/04/15 09:50:07;;;;;;;;;;;;;;;;;;4454344;32;19971;-79
2022/04/15 09:52:32;;;;;;;;;;;;;;;;;;4455476;32;19936;-79
2022/04/15 09:54:57;;;;;;;;;;;;;;;;;;4454108;32;19966;-78
2022/04/15 09:57:22;;;;;;;;;;;;;;;;;;4453382;32;20322;-79
2022/04/15 09:59:47;;;;;;;;;;;;;;;;;;4454448;32;19943;-81
2022/04/15 10:02:13;;;;;;;;;;;;;;;;;;4453933;32;20326;-79
2022/04/15 10:04:38;;;;;;;;;;;;;;;;;;4453457;32;19971;-81
2022/04/15 10:07:08;;;;;;;;;;;;;;;;;;4454300;32;19946;-82
2022/04/15 10:09:33;;;;;;;;;;;;;;;;;;4454102;32;19969;-79
2022/04/15 10:11:58;;;;;;;;;;;;;;;;;;4453913;32;20036;-79
2022/04/15 10:14:23;;;;;;;;;;;;;;;;;;4454594;32;19947;-78
2022/04/15 10:16:48;;;;;;;;;;;;;;;;;;4439580;32;19982;-81
2022/04/15 10:19:13;;;;;;;;;;;;;;;;;;4455208;32;19973;-82
2022/04/15 10:21:39;;;;;;;;;;;;;;;;;;4453328;32;19952;-81
2022/04/15 10:24:04;;;;;;;;;;;;;;;;;;4453101;32;20261;-82
2022/04/15 10:26:29;;;;;;;;;;;;;;;;;;4454119;32;20001;-80
2022/04/15 10:28:54;;;;;;;;;;;;;;;;;;4453709;32;20014;-81
2022/04/15 10:31:19;;;;;;;;;;;;;;;;;;4438915;32;20274;-82
2022/04/15 10:33:49;;;;;;;;;;;;;;;;;;4453400;32;19955;-78
2022/04/15 10:36:14;;;;;;;;;;;;;;;;;;4447192;32;19941;-79
2022/04/15 10:38:39;;;;;;;;;;;;;;;;;;4452857;32;19980;-81
2022/04/15 10:41:04;;;;;;;;;;;;;;;;;;4452969;32;19950;-81
2022/04/15 10:43:29;;;;;;;;;;;;;;;;;;4453061;32;20015;-79
2022/04/15 10:45:54;;;;;;;;;;;;;;;;;;4454974;32;19940;-80
2022/04/15 10:48:20;;;;;;;;;;;;;;;;;;4453287;32;19940;-81
2022/04/15 10:50:45;;;;;;;;;;;;;;;;;;4438702;32;19936;-81
2022/04/15 10:53:11;;;;;;;;;;;;;;;;;;4450306;32;20097;-81
2022/04/15 10:55:36;;;;;;;;;;;;;;;;;;4443013;32;19936;-81
2022/04/15 10:58:01;;;;;;;;;;;;;;;;;;4452818;32;19968;-78
2022/04/15 11:03:10;;;;;;;;;;;;;;;;;;4453657;32;19967;-77
2022/04/15 11:05:36;;;;;;;;;;;;;;;;;;4426581;32;19937;-82
2022/04/15 11:08:01;;;;;;;;;;;;;;;;;;4439852;32;19984;-79
2022/04/15 11:10:26;;;;;;;;;;;;;;;;;;4441751;32;19940;-81
2022/04/15 11:12:51;;;;;;;;;;;;;;;;;;4453325;32;19941;-83
2022/04/15 11:15:18;;;;;;;;;;;;;;;;;;4455532;32;19937;-81
2022/04/15 11:17:43;;;;;;;;;;;;;;;;;;4454589;32;19996;-82
2022/04/15 11:20:09;;;;;;;;;;;;;;;;;;4455234;32;19986;-81
2022/04/15 11:22:34;;;;;;;;;;;;;;;;;;4453133;32;19932;-79
2022/04/15 11:24:59;;;;;;;;;;;;;;;;;;4439210;32;19970;-80
2022/04/15 11:27:24;;;;;;;;;;;;;;;;;;4455034;32;19947;-83
2022/04/15 11:29:49;;;;;;;;;;;;;;;;;;4455385;32;19947;-83
2022/04/15 11:32:14;;;;;;;;;;;;;;;;;;4455384;32;19979;-83
2022/04/15 11:34:42;;;;;;;;;;;;;;;;;;4455551;32;19932;-83
2022/04/15 11:37:09;;;;;;;;;;;;;;;;;;4465352;32;19954;-78
2022/04/15 11:39:35;;;;;;;;;;;;;;;;;;4465010;32;19950;-80
2022/04/15 11:42:00;;;;;;;;;;;;;;;;;;4465668;32;19924;-80
2022/04/15 11:44:25;;;;;;;;;;;;;;;;;;4466468;32;19973;-77
2022/04/15 11:46:51;;;;;;;;;;;;;;;;;;4463084;32;19932;-79
2022/04/15 11:49:16;;;;;;;;;;;;;;;;;;4463427;32;19997;-78
2022/04/15 11:51:41;;;;;;;;;;;;;;;;;;4465023;32;20305;-80
2022/04/15 11:54:06;;;;;;;;;;;;;;;;;;4461277;32;20316;-80
2022/04/15 11:56:32;;;;;;;;;;;;;;;;;;4463131;32;19933;-83
2022/04/15 11:58:57;;;;;;;;;;;;;;;;;;4462094;32;19936;-79
2022/04/15 12:01:23;;;;;;;;;;;;;;;;;;4461040;32;19973;-80
2022/04/15 12:03:48;;;;;;;;;;;;;;;;;;4458556;32;19963;-79
2022/04/15 12:06:13;;;;;;;;;;;;;;;;;;4455640;32;19952;-81
2022/04/15 12:08:38;;;;;;;;;;;;;;;;;;4456115;32;19993;-79
2022/04/15 12:11:03;;;;;;;;;;;;;;;;;;4441469;32;19995;-81
2022/04/15 12:13:28;;;;;;;;;;;;;;;;;;4440310;32;19940;-81
2022/04/15 12:15:53;;;;;;;;;;;;;;;;;;4443488;32;19940;-80
2022/04/15 12:18:18;;;;;;;;;;;;;;;;;;4440506;32;19972;-81
2022/04/15 12:20:44;;;;;;;;;;;;;;;;;;4439603;32;19940;-78
2022/04/15 12:31:22;;;;;;;;;;;;;;;;;;4442085;32;19943;-80
2022/04/15 12:33:48;;;;;;;;;;;;;;;;;;4443236;32;19937;-82
2022/04/15 12:36:13;;;;;;;;;;;;;;;;;;4443487;32;19982;-78
2022/04/15 12:38:38;;;;;;;;;;;;;;;;;;4445444;32;19933;-81
2022/04/15 12:41:04;;;;;;;;;;;;;;;;;;4456653;32;19943;-83
2022/04/15 12:43:29;;;;;;;;;;;;;;;;;;4456873;32;19951;-81
2022/04/15 12:45:55;;;;;;;;;;;;;;;;;;4452917;32;19941;-83
2022/04/15 12:48:20;;;;;;;;;;;;;;;;;;4444500;32;20242;-82
2022/04/15 12:50:45;;;;;;;;;;;;;;;;;;4441214;32;19952;-80
2022/04/15 12:53:11;;;;;;;;;;;;;;;;;;4444041;32;19948;-84
2022/04/15 12:55:36;;;;;;;;;;;;;;;;;;4432694;32;19936;-82
2022/04/15 12:58:01;;;;;;;;;;;;;;;;;;4453553;32;19966;-84
2022/04/15 13:00:26;;;;;;;;;;;;;;;;;;4444246;32;20275;-80
2022/04/15 13:02:51;;;;;;;;;;;;;;;;;;4439717;32;19945;-83
2022/04/15 13:05:16;;;;;;;;;;;;;;;;;;4447622;32;19944;-82
2022/04/15 13:07:41;;;;;;;;;;;;;;;;;;4453814;32;19943;-80
2022/04/15 13:10:06;;;;;;;;;;;;;;;;;;4453946;32;19967;-81
2022/04/15 13:12:32;;;;;;;;;;;;;;;;;;4453767;32;19985;-84
2022/04/15 13:14:57;;;;;;;;;;;;;;;;;;4391084;32;19972;-83
2022/04/15 13:17:22;;;;;;;;;;;;;;;;;;4400698;32;19951;-84
2022/04/15 13:19:47;;;;;;;;;;;;;;;;;;4406897;32;19956;-84
2022/04/15 13:22:13;;;;;;;;;;;;;;;;;;4406153;32;19948;-82
2022/04/15 13:24:38;;;;;;;;;;;;;;;;;;4406333;32;19979;-82
2022/04/15 13:27:03;;;;;;;;;;;;;;;;;;4405528;32;19948;-82
2022/04/15 13:29:28;;;;;;;;;;;;;;;;;;4406746;32;19982;-83
2022/04/15 13:31:53;;;;;;;;;;;;;;;;;;4404991;32;19945;-81
2022/04/15 13:34:19;;;;;;;;;;;;;;;;;;4405699;32;19933;-79
2022/04/15 13:36:44;;;;;;;;;;;;;;;;;;4404159;32;19964;-80
2022/04/15 13:39:09;;;;;;;;;;;;;;;;;;4405621;32;19968;-79
2022/04/15 13:41:36;;;;;;;;;;;;;;;;;;4401392;32;19941;-82
2022/04/15 13:44:01;;;;;;;;;;;;;;;;;;4389944;32;20312;-82
2022/04/15 13:46:26;;;;;;;;;;;;;;;;;;4390630;32;19948;-85
2022/04/15 13:48:54;;;;;;;;;;;;;;;;;;4393697;32;19938;-84
2022/04/15 13:51:19;;;;;;;;;;;;;;;;;;4394633;32;19983;-84
2022/04/15 13:56:37;;;;;;;;;;;;;;;;;;4365819;32;19995;-83
2022/04/15 13:59:03;;;;;;;;;;;;;;;;;;4395130;32;19938;-82
2022/04/15 14:01:28;;;;;;;;;;;;;;;;;;4379372;32;20350;-85
2022/04/15 14:03:54;;;;;;;;;;;;;;;;;;4397979;32;20279;-84
2022/04/15 14:06:19;;;;;;;;;;;;;;;;;;4392709;32;19970;-84
2022/04/15 14:08:44;;;;;;;;;;;;;;;;;;4392775;32;20061;-81
2022/04/15 14:11:09;;;;;;;;;;;;;;;;;;4392997;32;19996;-83
2022/04/15 14:13:37;;;;;;;;;;;;;;;;;;4396369;32;19947;-82
2022/04/15 14:16:03;;;;;;;;;;;;;;;;;;4407220;32;20315;-82
2022/04/15 14:18:28;;;;;;;;;;;;;;;;;;4407965;32;20260;-80
2022/04/15 14:20:54;;;;;;;;;;;;;;;;;;4408019;32;20294;-85
2022/04/15 14:23:19;;;;;;;;;;;;;;;;;;4406051;32;19995;-81
2022/04/15 14:25:44;;;;;;;;;;;;;;;;;;4407475;32;19986;-81
2022/04/15 14:28:09;;;;;;;;;;;;;;;;;;4407953;32;19976;-83
2022/04/15 14:30:34;;;;;;;;;;;;;;;;;;4406385;32;19976;-82
2022/04/15 14:32:59;;;;;;;;;;;;;;;;;;4406910;32;19967;-81
2022/04/15 14:35:24;;;;;;;;;;;;;;;;;;4407533;32;19937;-80
2022/04/15 14:37:50;;;;;;;;;;;;;;;;;;4407446;32;19983;-82
2022/04/15 14:40:16;;;;;;;;;;;;;;;;;;4407374;32;19934;-83
2022/04/15 14:42:41;;;;;;;;;;;;;;;;;;4407623;32;19948;-83
2022/04/15 14:45:07;;;;;;;;;;;;;;;;;;4407118;32;19983;-84
2022/04/15 14:47:33;;;;;;;;;;;;;;;;;;4406849;32;19948;-80
2022/04/15 14:50:00;;;;;;;;;;;;;;;;;;4406255;32;20361;-82
2022/04/15 14:52:25;;;;;;;;;;;;;;;;;;4409994;32;19986;-79
2022/04/15 14:54:51;;;;;;;;;;;;;;;;;;4407453;32;19937;-81
2022/04/15 14:57:17;;;;;;;;;;;;;;;;;;4393383;32;20315;-85
2022/04/15 14:59:42;;;;;;;;;;;;;;;;;;4393272;32;20275;-82
2022/04/15 15:02:07;;;;;;;;;;;;;;;;;;4393460;32;20000;-81
2022/04/15 15:04:32;;;;;;;;;;;;;;;;;;4406598;32;19994;-84
2022/04/15 15:06:57;;;;;;;;;;;;;;;;;;4397324;32;19938;-81
2022/04/15 15:09:22;;;;;;;;;;;;;;;;;;4377785;32;20362;-81
2022/04/15 15:11:47;;;;;;;;;;;;;;;;;;4384256;32;20255;-78
2022/04/15 15:14:12;;;;;;;;;;;;;;;;;;4397158;32;19989;-81
2022/04/15 15:16:39;;;;;;;;;;;;;;;;;;4400939;32;19937;-83
2022/04/15 15:19:04;;;;;;;;;;;;;;;;;;4403496;32;19930;-84
2022/04/15 15:21:29;;;;;;;;;;;;;;;;;;4390177;32;19979;-82
2022/04/15 15:32:07;;;;;;;;;;;;;;;;;;4399389;32;19944;-81
2022/04/15 15:34:32;;;;;;;;;;;;;;;;;;4407257;32;19953;-84
2022/04/15 15:36:57;;;;;;;;;;;;;;;;;;4393831;32;19968;-81
2022/04/15 15:39:22;;;;;;;;;;;;;;;;;;4393013;32;19988;-81
2022/04/15 15:41:47;;;;;;;;;;;;;;;;;;4406326;32;19956;-83
2022/04/15 15:44:12;;;;;;;;;;;;;;;;;;4405889;32;19938;-83
2022/04/15 15:46:37;;;;;;;;;;;;;;;;;;4405517;32;19976;-82
2022/04/15 15:49:03;;;;;;;;;;;;;;;;;;4405350;32;19937;-83
2022/04/15 15:51:29;;;;;;;;;;;;;;;;;;4405563;32;20271;-81
2022/04/15 15:53:54;;;;;;;;;;;;;;;;;;4405243;32;19950;-81
2022/04/15 15:56:22;;;;;;;;;;;;;;;;;;4405490;32;19938;-85
2022/04/15 15:58:47;;;;;;;;;;;;;;;;;;4405144;32;19956;-81
2022/04/15 16:01:12;;;;;;;;;;;;;;;;;;4405075;32;19994;-83
2022/04/15 16:03:37;;;;;;;;;;;;;;;;;;4405292;32;19980;-84
2022/04/15 16:06:02;;;;;;;;;;;;;;;;;;4405574;32;19941;-80
2022/04/15 16:08:27;;;;;;;;;;;;;;;;;;4405474;32;19964;-81
2022/04/15 16:10:53;;;;;;;;;;;;;;;;;;4404851;32;19957;-82
2022/04/15 16:13:18;;;;;;;;;;;;;;;;;;4405326;32;19975;-81
2022/04/15 16:15:43;;;;;;;;;;;;;;;;;;4405529;32;19960;-80
2022/04/15 16:18:08;;;;;;;;;;;;;;;;;;4406738;32;20298;-82
2022/04/15 16:20:33;;;;;;;;;;;;;;;;;;4405628;32;19948;-80
2022/04/15 16:22:58;;;;;;;;;;;;;;;;;;4405146;32;19981;-80
2022/04/15 16:25:23;;;;;;;;;;;;;;;;;;4405040;32;19945;-81
2022/04/15 16:27:48;;;;;;;;;;;;;;;;;;4398389;32;19977;-79
2022/04/15 16:30:15;;;;;;;;;;;;;;;;;;4403693;32;20302;-82
2022/04/15 16:32:40;;;;;;;;;;;;;;;;;;4390142;32;19972;-78
2022/04/15 16:35:05;;;;;;;;;;;;;;;;;;4405523;32;19993;-83
2022/04/15 16:37:30;;;;;;;;;;;;;;;;;;4407909;32;19945;-79
2022/04/15 16:39:55;;;;;;;;;;;;;;;;;;4383694;32;19968;-84
2022/04/15 16:42:20;;;;;;;;;;;;;;;;;;4379584;32;20315;-80